Home > Products > Valid Products > MTR

000
SAUS43 KABR 301400
MTR8D3
METAR K8D3 301356Z AUTO 34010KT 06/04 A3007 RMK AO1 SLP192 T00560044





000
SAUS43 KABR 301259
MTR8D3
METAR K8D3 301256Z AUTO 36003KT 03/03 A3004 RMK AO1 SLP184 T00330033





000
SAUS43 KABR 301200
MTR8D3
METAR K8D3 301156Z AUTO 00000KT 03/03 A3001 RMK AO1 SLP176 70008
T00280028 10039 20006 53011





000
SAUS43 KABR 301059
MTR8D3
METAR K8D3 301056Z AUTO 00000KT 02/02 A2999 RMK AO1 SLP167 T00220022





000
SAUS43 KABR 301059
MTR8D3
METAR K8D3 301056Z AUTO 00000KT 02/02 A2999 RMK AO1 SLP167 T00220022





000
SAUS43 KABR 300959
MTR8D3
METAR K8D3 300956Z AUTO 17005KT 03/03 A2998 RMK AO1 SLP160 T00330033





000
SAUS43 KABR 300900
MTR8D3
METAR K8D3 300856Z AUTO 19006KT 03/03 A2998 RMK AO1 SLP161 T00330033
56004





000
SAUS43 KABR 300759
MTR8D3
METAR K8D3 300756Z AUTO 18004KT 04/04 A2998 RMK AO1 SLP163 T00390039





000
SAUS43 KABR 300659
MTR8D3
METAR K8D3 300656Z AUTO 15004KT 04/03 A2998 RMK AO1 SLP162 T00390033





000
SAUS43 KABR 300559
MTR8D3
METAR K8D3 300556Z AUTO 16004KT 04/03 A2999 RMK AO1 SLP168 P0001
60008 T00390033 10056 20039 400890011 58003





000
SAUS43 KABR 300459
MTR8D3
METAR K8D3 300456Z AUTO 00000KT 04/03 A3001 RMK AO1 SLP174 P0003
T00390033





000
SAUS43 KABR 300459
MTR8D3
METAR K8D3 300456Z AUTO 00000KT 04/03 A3001 RMK AO1 SLP174 P0003
T00390033





000
SAUS43 KABR 300359
MTR8D3
METAR K8D3 300356Z AUTO 15004KT 04/03 A3000 RMK AO1 SLP173 P0004
T00390033





000
SAUS43 KABR 300300
MTR8D3
METAR K8D3 300256Z AUTO 16005KT 05/02 A3000 RMK AO1 SLP172 T00500017
55005





000
SAUS43 KABR 300200
MTR8D3
METAR K8D3 300156Z AUTO 16008KT 05/02 A2999 RMK AO1 SLP170 T00500017





000
SAUS43 KABR 300059
MTR8D3
METAR K8D3 300056Z AUTO 17006KT 06/01 A3001 RMK AO1 SLP177 T00560011





000
SAUS43 KABR 292359
MTR8D3
METAR K8D3 292356Z AUTO 13004KT 05/01 A3002 RMK AO1 SLP178 T00500006
10089 20050 55006





000
SAUS43 KABR 292259
MTR8D3
METAR K8D3 292256Z AUTO 21003KT 07/M01 A3001 RMK AO1 SLP175
T00671006





000
SAUS43 KABR 292159
MTR8D3
METAR K8D3 292156Z AUTO 22005KT 09/M01 A3002 RMK AO1 SLP177
T00891006





000
SAUS43 KABR 292100
MTR8D3
METAR K8D3 292056Z AUTO 19005KT 08/00 A3004 RMK AO1 SLP181 T00830000
56026





000
SAUS43 KABR 292000
MTR8D3
METAR K8D3 291956Z AUTO VRB04KT 07/M01 A3005 RMK AO1 SLP188
T00671006





000
SAUS43 KABR 291900
MTR8D3
METAR K8D3 291856Z AUTO 25007KT 07/M01 A3009 RMK AO1 SLP201
T00671011





000
SAUS43 KABR 291800
MTR8D3
METAR K8D3 291756Z AUTO 20003KT 05/M01 A3012 RMK AO1 SLP210
T00501011 10061 20011 58014





000
SAUS43 KABR 291700
MTR8D3
METAR K8D3 291656Z AUTO 26003KT 04/M02 A3015 RMK AO1 SLP220
T00391017





000
SAUS43 KABR 291600
MTR8D3
METAR K8D3 291556Z AUTO 32003KT 03/M02 A3015 RMK AO1 SLP224
T00281022





000
SAUS43 KABR 291459
MTR8D3
METAR K8D3 291456Z AUTO 34007KT 02/M02 A3016 RMK AO1 SLP226
T00221022 50006





000
SAUS43 KABR 291359
MTR8D3
METAR K8D3 291356Z AUTO 35009KT 01/M02 A3016 RMK AO1 SLP229
T00111022





000
SAUS43 KABR 291300
MTR8D3
METAR K8D3 291256Z AUTO 30008KT 01/M02 A3015 RMK AO1 SLP224
T00111022





000
SAUS43 KABR 291159
MTR8D3
METAR K8D3 291156Z AUTO 30008KT 02/M02 A3014 RMK AO1 SLP221 70004
T00171022 10039 20017 51006





000
SAUS43 KABR 291059
MTR8D3
METAR K8D3 291056Z AUTO 33012KT 02/M02 A3014 RMK AO1 SLP218
T00171022





000
SAUS43 KABR 290959
MTR8D3
METAR K8D3 290956Z AUTO 33010KT 02/M02 A3013 RMK AO1 SLP215
T00221017





000
SAUS43 KABR 290859
MTR8D3
METAR K8D3 290856Z AUTO 34012KT 02/M02 A3012 RMK AO1 SLP214
T00221017 51010





000
SAUS43 KABR 290759
MTR8D3
METAR K8D3 290756Z AUTO 34013KT 03/M02 A3011 RMK AO1 SLP211
T00281017





000
SAUS43 KABR 290700
MTR8D3
METAR K8D3 290656Z AUTO 34015KT 03/M02 A3010 RMK AO1 SLP206
T00331017





000
SAUS43 KABR 290600
MTR8D3
METAR K8D3 290556Z AUTO 34015KT 04/M01 A3009 RMK AO1 SLP201
T00391011 10050 20039 400610039 51013





000
SAUS43 KABR 290500
MTR8D3
METAR K8D3 290456Z AUTO 34013KT 04/M01 A3009 RMK AO1 SLP199
T00441011





000
SAUS43 KABR 290359
MTR8D3
METAR K8D3 290356Z AUTO 33017KT 04/M01 A3007 RMK AO1 SLP195
T00441006





000
SAUS43 KABR 290300
MTR8D3
METAR K8D3 290256Z AUTO 33015KT 05/M01 A3005 RMK AO1 SLP188
T00501006 51018





000
SAUS43 KABR 290159
MTR8D3
METAR K8D3 290156Z AUTO 33016KT 05/00 A3004 RMK AO1 SLP183 T00500000





000
SAUS43 KABR 290100
MTR8D3
METAR K8D3 290056Z AUTO 33017G24KT 05/M01 A3002 RMK AO1 PK WND
34028/0031 SLP176 T00501006





000
SAUS43 KABR 282359
MTR8D3
METAR K8D3 282356Z AUTO 33021G26KT 05/M01 A3000 RMK AO1 PK WND
33026/2355 SLP169 T00501006 10061 20044 53017





000
SAUS43 KABR 282259
MTR8D3
METAR K8D3 282256Z AUTO 33019G24KT 06/M01 A2998 RMK AO1 PK WND
33033/2227 SLP162 T00561006





000
SAUS43 KABR 282159
MTR8D3
METAR K8D3 282156Z AUTO 33019G27KT 05/M01 A2996 RMK AO1 PK WND
34028/2128 SLP156 T00501006





000
SAUS43 KABR 282059
MTR8D3
METAR K8D3 282056Z AUTO 32019G27KT 05/M01 A2995 RMK AO1 PK WND
32030/2019 SLP151 T00501006 51015





000
SAUS43 KABR 281959
MTR8D3
METAR K8D3 281956Z AUTO 33028G35KT 05/M01 A2993 RMK AO1 PK WND
33035/1955 SLP146 T00501006





000
SAUS43 KABR 281859
MTR8D3
METAR K8D3 281856Z AUTO 32023G32KT 06/00 A2992 RMK AO1 PK WND
31032/1840 SLP141 T00560000





000
SAUS43 KABR 281759
MTR8D3
METAR K8D3 281756Z AUTO 34022G32KT 06/01 A2990 RMK AO1 PK WND
33034/1743 SLP135 60004 T00610006 10061 20039 51014





000
SAUS43 KABR 281659
MTR8D3
METAR K8D3 281656Z AUTO 32023G30KT 05/01 A2990 RMK AO1 PK WND
33031/1646 SLP134 T00500006





000
SAUS43 KABR 281600
MTR8D3
METAR K8D3 281556Z AUTO 33025G31KT 04/01 A2988 RMK AO1 PK WND
33031/1556 SLP128 T00440011





000
SAUS43 KABR 281600
MTR8D3
METAR K8D3 281556Z AUTO 33025G31KT 04/01 A2988 RMK AO1 PK WND
33031/1556 SLP128 T00440011





000
SAUS43 KABR 281500
MTR8D3
METAR K8D3 281456Z AUTO 33021G26KT 04/03 A2986 RMK AO1 PK WND
33027/1439 SLP120 60004 T00440028 53033





000
SAUS43 KABR 281359
MTR8D3
METAR K8D3 281356Z AUTO 33019G26KT 04/04 A2982 RMK AO1 PK WND
32030/1340 SLP108 P0003 T00440039





000
SAUS43 KABR 281259
MTR8D3
METAR K8D3 281256Z AUTO 33017KT 06/05 A2979 RMK AO1 PK WND
32027/1218 SLP095 P0001 T00560050





000
SAUS43 KABR 281159
MTR8D3
METAR K8D3 281156Z AUTO 32018G23KT 06/04 A2976 RMK AO1 SLP084 70013
T00610039 10061 20050 53013





000
SAUS43 KABR 281059
MTR8D3
METAR K8D3 281056Z AUTO 31015G23KT 06/04 A2974 RMK AO1 SLP075
T00610039





000
SAUS43 KABR 280959
MTR8D3
METAR K8D3 280956Z AUTO 31014KT 06/04 A2973 RMK AO1 SLP071 T00560044





000
SAUS43 KABR 280959
MTR8D3
METAR K8D3 280956Z AUTO 31014KT 06/04 A2973 RMK AO1 SLP071 T00560044





000
SAUS43 KABR 280859
MTR8D3
METAR K8D3 280856Z AUTO 31012KT 06/03 A2972 RMK AO1 SLP068 T00560033
58001





000
SAUS43 KABR 280759
MTR8D3
METAR K8D3 280756Z AUTO 30012KT 06/03 A2972 RMK AO1 SLP072 T00560028





000
SAUS43 KABR 280659
MTR8D3
METAR K8D3 280656Z AUTO 30013G21KT 06/03 A2972 RMK AO1 SLP072
T00560028





000
SAUS43 KABR 280600
MTR8D3
METAR K8D3 280556Z AUTO 29013G22KT 06/02 A2972 RMK AO1 SLP072
T00560017 10089 20044 401220033 50003





000
SAUS43 KABR 280459
MTR8D3
METAR K8D3 280456Z AUTO 29010KT 04/01 A2973 RMK AO1 SLP074 T00440011





000
SAUS43 KABR 280459
MTR8D3
METAR K8D3 280456Z AUTO 29010KT 04/01 A2973 RMK AO1 SLP074 T00440011





000
SAUS43 KABR 280359
MTR8D3
METAR K8D3 280356Z AUTO 30010KT 07/01 A2972 RMK AO1 SLP068 T00670011





000
SAUS43 KABR 280359
MTR8D3
METAR K8D3 280356Z AUTO 30010KT 07/01 A2972 RMK AO1 SLP068 T00670011





000
SAUS43 KABR 280259
MTR8D3
METAR K8D3 280256Z AUTO 07/01 A2971 RMK AO1 SLP067 T00720011 53002





000
SAUS43 KABR 280159
MTR8D3
METAR K8D3 280156Z AUTO 28007KT 07/01 A2970 RMK AO1 SLP063 T00670011





000
SAUS43 KABR 280159
MTR8D3
METAR K8D3 280156Z AUTO 28007KT 07/01 A2970 RMK AO1 SLP063 T00670011





000
SAUS43 KABR 280059
MTR8D3
METAR K8D3 280056Z AUTO 28009KT 06/02 A2971 RMK AO1 SLP065 T00610022





000
SAUS43 KABR 272359
MTR8D3
METAR K8D3 272356Z AUTO 30007KT 09/03 A2971 RMK AO1 SLP061 60001
T00890028 10122 20089 53010





000
SAUS43 KABR 272259
MTR8D3
METAR K8D3 272256Z AUTO 31012G21KT 11/03 A2969 RMK AO1 SLP056
T01110033





000
SAUS43 KABR 272159
MTR8D3
METAR K8D3 272156Z AUTO 31009KT 12/06 A2968 RMK AO1 SLP054 T01170056





000
SAUS43 KABR 272059
MTR8D3
METAR K8D3 272056Z AUTO 33006KT 12/07 A2967 RMK AO1 SLP053 60001
T01170072 51004





000
SAUS43 KABR 271959
MTR8D3
METAR K8D3 271956Z AUTO 31007KT 10/08 A2967 RMK AO1 SLP056 P0001
T01000078





000
SAUS43 KABR 271859
MTR8D3
METAR K8D3 271856Z AUTO 32011KT 10/06 A2969 RMK AO1 SLP060 T01000061





000
SAUS43 KABR 271759
MTR8D3
METAR K8D3 271756Z AUTO 35008KT 09/06 A2966 RMK AO1 SLP051 P0001
60012 T00890061 10122 20083 50006





000
SAUS43 KABR 271659
MTR8D3
METAR K8D3 271656Z AUTO 32011KT 09/07 A2966 RMK AO1 SLP051 P0005
T00890067





000
SAUS43 KABR 271659
MTR8D3
METAR K8D3 271656Z AUTO 32011KT 09/07 A2966 RMK AO1 SLP051 P0005
T00890067





000
SAUS43 KABR 271559
MTR8D3
METAR K8D3 271556Z AUTO 35009KT 09/07 A2966 RMK AO1 SLP049 P0004
T00890072





000
SAUS43 KABR 271559
MTR8D3
METAR K8D3 271556Z AUTO 35009KT 09/07 A2966 RMK AO1 SLP049 P0004
T00890072





000
SAUS43 KABR 271459
MTR8D3
METAR K8D3 271456Z AUTO 36004KT 09/07 A2964 RMK AO1 SLP041 P0002
60002 T00940072 53013





    US Dept of Commerce
    National Oceanic and Atmospheric Administration
    National Weather Service
    1325 East West Highway
    Silver Spring, MD 20910
    Page Author: NWS Internet Services Team
Disclaimer
Information Quality
Credits
Glossary
Privacy Policy
Freedom of Information Act (FOIA)
About Us
Career Opportunities